Greta — J8B5386 — position and weather

sailwx.info

Track history (hours):
 
Tides and Currents Weather Stations Pressure Air Temp Water Temp Dewpoint Dewpoint Depression Visibility Wind Speed Wind Dir Waves Ship Positions

Greta

Last reported at 2018-Feb-20 19:29 UTC. Time now 2018-Feb-20 19:54 UTC.
Position N 51°30' W 002°42'.

Length 100 m; draft 4.9 m.

Type: Cargo ship. MMSI: 377793000.

Date/timePositionNaut miles runAvg speedWind from/ knotsBaromVisibWave heightAir tempDewpointWater temp
2018-Feb-20 19:29N 51°30' W 002°42'0 0.0
2018-Feb-20 18:59N 51°30' W 002°42'0 0.0
2018-Feb-20 18:29N 51°30' W 002°42'0 0.0
2018-Feb-20 17:59N 51°30' W 002°42'0 0.0
2018-Feb-20 17:29N 51°30' W 002°42'0 0.0
2018-Feb-20 16:59N 51°30' W 002°42'0 0.0
2018-Feb-20 16:29N 51°30' W 002°42'0 0.0
2018-Feb-20 15:59N 51°30' W 002°42'0 0.2
2018-Feb-20 15:29N 51°30' W 002°42'0 0.0
2018-Feb-20 14:59N 51°30' W 002°42'0 0.0
2018-Feb-20 14:26N 51°30' W 002°42'0 0.0
2018-Feb-20 13:59N 51°30' W 002°42'0 0.0
2018-Feb-20 13:29N 51°30' W 002°42'0 0.0
2018-Feb-20 12:59N 51°31' W 002°42'0 0.0
2018-Feb-20 12:29N 51°31' W 002°42'0 0.0
2018-Feb-20 11:59N 51°31' W 002°42'0 0.0
2018-Feb-20 11:29N 51°30' W 002°42'0 0.0
2018-Feb-20 10:59N 51°30' W 002°42'0 0.0
2018-Feb-20 10:29N 51°30' W 002°42'0 0.0
2018-Feb-20 09:59N 51°31' W 002°42'0 0.0
2018-Feb-20 09:29N 51°30' W 002°42'0 0.7
2018-Feb-20 09:00N 51°30' W 002°42'0 0.8
2018-Feb-20 08:30N 51°30' W 002°43'4 7.3
2018-Feb-20 08:00N 51°29' W 002°49'714.9
2018-Feb-20 07:30N 51°26' W 002°60'814.4
2018-Feb-20 06:57N 51°22' W 003°10'3 5.8
2018-Feb-20 06:31N 51°22' W 003°14'2110.2
2018-Feb-20 04:28N 51°21' W 003°48'26 9.2
2018-Feb-20 01:35N 51°26' W 004°29'2 8.6
2018-Feb-20 01:25N 51°27' W 004°32'3 8.0
2018-Feb-20 01:01N 51°27' W 004°37'4 7.6
2018-Feb-20 00:29N 51°28' W 004°43'4 7.9
2018-Feb-20 00:00N 51°28' W 004°49'4 8.1
2018-Feb-19 23:30N 51°29' W 004°56'4 8.1
2018-Feb-19 23:00N 51°30' W 005°02'4 7.9
2018-Feb-19 22:31N 51°33' W 005°07'4 7.5
2018-Feb-19 22:00N 51°35' W 005°12'4 7.6
2018-Feb-19 21:30N 51°37' W 005°16'4 7.7
2018-Feb-19 21:01N 51°39' W 005°21'3 6.9
2018-Feb-19 20:30N 51°42' W 005°24'7210.5
2018-Feb-19 13:39N 52°53' W 005°52'211.0
2018-Feb-19 13:30N 52°54' W 005°52'611.0
2018-Feb-19 12:59N 52°60' W 005°55'612.0
2018-Feb-19 12:30N 53°05' W 005°57'611.8
2018-Feb-19 12:00N 53°11' W 005°59'611.4
2018-Feb-19 11:30N 53°17' W 006°02'510.4
2018-Feb-19 11:00N 53°20' W 006°08'3 5.8
2018-Feb-19 10:30N 53°21' W 006°12'0 0.0
2018-Feb-19 09:59N 53°21' W 006°13'0 0.0
2018-Feb-19 09:26N 53°21' W 006°13'0 0.0
2018-Feb-19 08:59N 53°21' W 006°13'0 0.0
2018-Feb-19 08:20N 53°21' W 006°13'0 0.0
2018-Feb-19 07:59N 53°21' W 006°13'0 0.0
2018-Feb-19 07:29N 53°21' W 006°13'0 0.0
2018-Feb-19 06:59N 53°21' W 006°13'0 0.0
2018-Feb-19 06:23N 53°21' W 006°13'0 0.0
2018-Feb-19 05:59N 53°21' W 006°13'0 0.0
2018-Feb-19 05:29N 53°21' W 006°13'0 0.0
2018-Feb-19 04:53N 53°21' W 006°13'0 0.0
2018-Feb-19 04:26N 53°21' W 006°13'0 0.0
2018-Feb-19 03:59N 53°21' W 006°13'0 0.0
2018-Feb-19 03:29N 53°21' W 006°13'0 0.0
2018-Feb-19 02:56N 53°21' W 006°13'0 0.0
2018-Feb-19 02:26N 53°21' W 006°13'0 0.6
2018-Feb-19 01:59N 53°21' W 006°12'3 7.2
2018-Feb-19 01:30N 53°20' W 006°06'4 7.9
2018-Feb-19 00:59N 53°22' W 005°60'510.6
2018-Feb-19 00:30N 53°27' W 005°58'2612.1
2018-Feb-18 22:23N 53°53' W 005°60'512.3
2018-Feb-18 22:00N 53°57' W 006°01'5 9.9
2018-Feb-18 21:30N 54°01' W 006°05'7 1.3
2018-Feb-18 15:51N 54°06' W 006°15'310.0
2018-Feb-18 15:30N 54°04' W 006°11'510.5
2018-Feb-18 15:00N 54°01' W 006°03'510.7
2018-Feb-18 14:30N 53°56' W 005°60'611.6
2018-Feb-18 14:00N 53°50' W 005°59'911.9
2018-Feb-18 13:17N 53°41' W 005°59'412.6
2018-Feb-18 12:59N 53°38' W 005°59'612.8
2018-Feb-18 12:30N 53°32' W 005°58'612.8
2018-Feb-18 12:00N 53°25' W 005°58'611.6
2018-Feb-18 11:30N 53°20' W 006°03'5 9.4
2018-Feb-18 11:00N 53°21' W 006°11'1 1.5
2018-Feb-18 10:27N 53°21' W 006°13'0 0.0
2018-Feb-18 09:57N 53°21' W 006°13'0 0.0
2018-Feb-18 09:27N 53°21' W 006°13'0 0.0
2018-Feb-18 09:00N 53°21' W 006°13'0 0.0
2018-Feb-18 08:27N 53°21' W 006°13'0 0.0
2018-Feb-18 08:00N 53°21' W 006°13'0 0.0
2018-Feb-18 07:30N 53°21' W 006°13'0 0.0
2018-Feb-18 07:00N 53°21' W 006°13'0 0.0
2018-Feb-18 06:30N 53°21' W 006°13'0 0.3
2018-Feb-18 06:00N 53°21' W 006°12'4 7.9
2018-Feb-18 05:30N 53°20' W 006°06'4 7.1
2018-Feb-18 05:00N 53°18' W 006°01'5 9.7
2018-Feb-18 04:30N 53°13' W 005°60'510.2
2018-Feb-18 04:00N 53°08' W 005°57'0 0.5
2018-Feb-18 03:31N 53°08' W 005°57'1 1.8
2018-Feb-18 03:00N 53°09' W 005°58'1 1.5
2018-Feb-18 02:29N 53°10' W 005°59'1 1.3
2018-Feb-18 02:00N 53°11' W 005°59'0 0.4
2018-Feb-18 01:30N 53°11' W 005°59'4 7.6
2018-Feb-18 01:01N 53°07' W 005°58'510.0
2018-Feb-18 00:30N 53°02' W 005°56'611.9
2018-Feb-18 00:00N 52°56' W 005°53'713.3
2018-Feb-17 23:30N 52°50' W 005°51'713.8
2018-Feb-17 22:59N 52°43' W 005°48'1814.6
2018-Feb-17 21:43N 52°25' W 005°41'414.8
2018-Feb-17 21:29N 52°21' W 005°40'4014.7
2018-Feb-17 18:44N 51°42' W 005°24'512.6
2018-Feb-17 18:22N 51°39' W 005°19'412.1
2018-Feb-17 18:00N 51°36' W 005°14'611.7
2018-Feb-17 17:30N 51°33' W 005°06'510.6
2018-Feb-17 17:00N 51°30' W 004°58'510.0
2018-Feb-17 16:30N 51°29' W 004°50'2610.4
2018-Feb-17 13:58N 51°24' W 004°09'811.9
2018-Feb-17 13:18N 51°23' W 003°56'413.0
2018-Feb-17 12:58N 51°22' W 003°50'714.1
2018-Feb-17 12:29N 51°22' W 003°39'1115.5
2018-Feb-17 11:45N 51°21' W 003°21'415.2
2018-Feb-17 11:30N 51°22' W 003°15'612.3
2018-Feb-17 11:00N 51°23' W 003°05'714.9
2018-Feb-17 10:30N 51°28' W 002°56'714.6
2018-Feb-17 10:01N 51°30' W 002°45'1 2.6
2018-Feb-17 09:30N 51°30' W 002°43'0 0.6
2018-Feb-17 08:58N 51°30' W 002°42'0 0.0
2018-Feb-17 08:28N 51°30' W 002°42'0 0.0
2018-Feb-17 07:55N 51°30' W 002°42'0 0.0
2018-Feb-17 07:28N 51°30' W 002°42'0 0.0
2018-Feb-17 06:58N 51°30' W 002°42'0 0.0
2018-Feb-17 06:25N 51°30' W 002°42'0 0.0
2018-Feb-17 05:58N 51°30' W 002°42'0 0.0
2018-Feb-17 05:28N 51°30' W 002°42'0 0.0
2018-Feb-17 04:55N 51°30' W 002°42'0 0.0
2018-Feb-17 04:28N 51°30' W 002°42'0 0.0
2018-Feb-17 03:58N 51°30' W 002°42'0 0.0
2018-Feb-17 03:28N 51°30' W 002°42'0 0.0
2018-Feb-17 02:58N 51°30' W 002°42'0 0.0
2018-Feb-17 02:25N 51°30' W 002°42'0 0.0
2018-Feb-17 01:58N 51°30' W 002°42'0 0.0
2018-Feb-17 01:28N 51°30' W 002°42'0 0.0
2018-Feb-17 00:58N 51°30' W 002°42'0 0.0
2018-Feb-17 00:25N 51°30' W 002°42'0 0.0
2018-Feb-16 23:58N 51°30' W 002°42'0 0.0
2018-Feb-16 23:28N 51°30' W 002°42'0 0.0
2018-Feb-16 22:58N 51°30' W 002°42'0 0.0
2018-Feb-16 22:28N 51°30' W 002°42'0 0.0
2018-Feb-16 21:58N 51°30' W 002°42'0 0.0
2018-Feb-16 21:28N 51°30' W 002°42'0 0.0
2018-Feb-16 20:58N 51°30' W 002°42'0 0.0
2018-Feb-16 20:25N 51°30' W 002°42'0 0.0
2018-Feb-16 19:58N 51°30' W 002°42'0 0.0
2018-Feb-16 19:28N 51°30' W 002°42'0 0.2
2018-Feb-16 19:00N 51°30' W 002°42'0 0.9
2018-Feb-16 18:30N 51°30' W 002°43'1 1.2
2018-Feb-16 18:00N 51°30' W 002°44'713.2
2018-Feb-16 17:30N 51°28' W 002°54'814.7
2018-Feb-16 16:59N 51°24' W 003°04'63 9.1
2018-Feb-16 09:59N 51°28' W 004°46'4 8.7
2018-Feb-16 09:30N 51°29' W 004°52'4 7.2
2018-Feb-16 09:00N 51°30' W 004°58'4 7.5
2018-Feb-16 08:30N 51°31' W 005°03'4 8.7
2018-Feb-16 08:00N 51°34' W 005°09'4 8.6
2018-Feb-16 07:30N 51°36' W 005°14'4 8.9
2018-Feb-16 07:00N 51°39' W 005°20'4 8.0
2018-Feb-16 06:30N 51°42' W 005°24'86 9.1
2018-Feb-15 21:09N 53°08' W 005°34'2 5.9
2018-Feb-15 20:51N 53°09' W 005°35'2 6.5
2018-Feb-15 20:28N 53°12' W 005°36'5 6.5
2018-Feb-15 19:46N 53°16' W 005°38'2 7.1
2018-Feb-15 19:29N 53°18' W 005°40'38 8.7
2018-Feb-15 15:03N 53°55' W 005°57'111.5
2018-Feb-15 15:00N 53°56' W 005°57'611.6
2018-Feb-15 14:29N 54°01' W 006°03'9 1.1
2018-Feb-15 06:43N 54°06' W 006°15'210.2
2018-Feb-15 06:29N 54°04' W 006°12'612.6
2018-Feb-15 06:00N 54°01' W 006°03'4 9.0
2018-Feb-15 05:30N 53°57' W 005°58'5 9.7
2018-Feb-15 05:00N 53°53' W 005°56'7 9.7
2018-Feb-15 04:19N 53°46' W 005°53'19 9.4
2018-Feb-15 02:17N 53°28' W 005°45'3 9.4
2018-Feb-15 02:00N 53°25' W 005°43'5 9.7
2018-Feb-15 01:30N 53°21' W 005°41'710.5
2018-Feb-15 00:53N 53°14' W 005°39'411.2
2018-Feb-15 00:30N 53°10' W 005°37'611.5
2018-Feb-15 00:00N 53°05' W 005°35'611.1
2018-Feb-14 23:30N 52°59' W 005°33'611.9
2018-Feb-14 23:00N 52°53' W 005°32'7313.8
2018-Feb-14 17:43N 51°40' W 005°23'411.9
2018-Feb-14 17:23N 51°38' W 005°18'411.9
2018-Feb-14 17:00N 51°36' W 005°12'611.6
2018-Feb-14 16:30N 51°32' W 005°05'5 9.9
2018-Feb-14 16:00N 51°30' W 004°58'5 9.4
2018-Feb-14 15:30N 51°29' W 004°50'38 8.6
2018-Feb-14 11:01N 51°22' W 003°50'110.5
2018-Feb-14 10:55N 51°22' W 003°48'611.4
2018-Feb-14 10:26N 51°21' W 003°39'712.3
2018-Feb-14 09:53N 51°21' W 003°28'513.9
2018-Feb-14 09:30N 51°21' W 003°20'712.7
2018-Feb-14 08:56N 51°22' W 003°08'614.9
2018-Feb-14 08:30N 51°26' W 003°01'714.5
2018-Feb-14 08:00N 51°29' W 002°50'5 9.6
2018-Feb-14 07:29N 51°30' W 002°43'0 0.6
2018-Feb-14 06:59N 51°30' W 002°42'0 0.0
2018-Feb-14 06:29N 51°30' W 002°42'0 0.0
2018-Feb-14 05:59N 51°30' W 002°42'0 0.0
2018-Feb-14 05:29N 51°30' W 002°42'0 0.0
2018-Feb-14 04:59N 51°30' W 002°42'0 0.0
2018-Feb-14 04:29N 51°30' W 002°42'0 0.0
2018-Feb-14 03:59N 51°30' W 002°42'0 0.0
2018-Feb-14 03:29N 51°30' W 002°42'0 0.0
2018-Feb-14 02:59N 51°30' W 002°42'0 0.0
2018-Feb-14 02:29N 51°30' W 002°42'0 0.0
2018-Feb-14 01:59N 51°30' W 002°42'0 0.0
2018-Feb-14 01:29N 51°30' W 002°42'0 0.0
2018-Feb-14 00:59N 51°30' W 002°42'0 0.0
2018-Feb-14 00:29N 51°30' W 002°42'0 0.0
2018-Feb-13 23:59N 51°30' W 002°42'0 0.0
2018-Feb-13 23:29N 51°30' W 002°42'0 0.0
2018-Feb-13 22:59N 51°30' W 002°42'0 0.0
2018-Feb-13 22:29N 51°30' W 002°42'0 0.0
2018-Feb-13 21:59N 51°30' W 002°42'0 0.0
2018-Feb-13 21:29N 51°30' W 002°42'0 0.0
2018-Feb-13 20:59N 51°30' W 002°42'0 0.0
2018-Feb-13 20:29N 51°30' W 002°42'0 0.0
2018-Feb-13 19:59N 51°30' W 002°42'0 0.0
2018-Feb-13 19:29N 51°30' W 002°42'0 0.0
2018-Feb-13 18:56N 51°30' W 002°42'0 0.0
2018-Feb-13 18:29N 51°30' W 002°42'0 0.0
2018-Feb-13 17:59N 51°30' W 002°42'0 0.0
2018-Feb-13 17:30N 51°30' W 002°42'0 0.0
2018-Feb-13 17:00N 51°30' W 002°42'0 0.0
2018-Feb-13 16:30N 51°30' W 002°42'0 0.0
2018-Feb-13 15:59N 51°30' W 002°42'0 0.8
2018-Feb-13 15:30N 51°30' W 002°43'2 3.5
2018-Feb-13 15:00N 51°30' W 002°45'714.7
2018-Feb-13 14:30N 51°27' W 002°57'1313.8
2018-Feb-13 13:35N 51°21' W 003°14'6 6.9
2018-Feb-13 12:45N 51°19' W 003°23'2 6.9
2018-Feb-13 12:30N 51°17' W 003°22'4 7.6
2018-Feb-13 12:00N 51°13' W 003°23'3 0.4
2018-Feb-13 05:06N 51°16' W 003°23'110.4
2018-Feb-13 05:00N 51°15' W 003°23'4910.3
2018-Feb-13 00:16N 51°28' W 004°38'310.8
2018-Feb-12 23:59N 51°28' W 004°43'510.6
2018-Feb-12 23:30N 51°29' W 004°51'510.6
2018-Feb-12 23:00N 51°30' W 004°60'5 9.7
2018-Feb-12 22:30N 51°33' W 005°06'5 9.7
2018-Feb-12 22:00N 51°36' W 005°13'5 9.4
2018-Feb-12 21:31N 51°38' W 005°19'4 8.7
2018-Feb-12 21:00N 51°41' W 005°24'68 9.2
2018-Feb-12 13:38N 52°48' W 005°50'212.5
2018-Feb-12 13:29N 52°49' W 005°50'613.3
2018-Feb-12 13:01N 52°56' W 005°53'713.8
2018-Feb-12 12:30N 53°02' W 005°56'713.8
2018-Feb-12 12:01N 53°09' W 005°58'713.4
2018-Feb-12 11:30N 53°15' W 006°01'612.3
2018-Feb-12 11:00N 53°20' W 006°07'3 6.3
2018-Feb-12 10:28N 53°21' W 006°13'0 0.0
2018-Feb-12 09:55N 53°21' W 006°13'0 0.0
2018-Feb-12 09:19N 53°21' W 006°13'0 0.0
2018-Feb-12 08:43N 53°21' W 006°13'0 0.0
2018-Feb-12 08:04N 53°21' W 006°13'0 0.1
2018-Feb-12 07:58N 53°21' W 006°13'0 0.0
2018-Feb-12 07:28N 53°21' W 006°12'0 0.0
2018-Feb-12 06:58N 53°21' W 006°13'0 0.0
2018-Feb-12 06:22N 53°21' W 006°13'0 0.0
2018-Feb-12 05:49N 53°21' W 006°13'0 0.0
2018-Feb-12 05:10N 53°21' W 006°13'0 0.0
2018-Feb-12 04:58N 53°21' W 006°13'0 0.0
2018-Feb-12 04:28N 53°21' W 006°12'0 0.0
2018-Feb-12 03:58N 53°21' W 006°13'0 0.0
2018-Feb-12 03:25N 53°21' W 006°13'0 0.0
2018-Feb-12 02:46N 53°21' W 006°13'0 0.0
2018-Feb-12 02:13N 53°21' W 006°13'0 0.0
2018-Feb-12 01:58N 53°21' W 006°13'0 0.0
2018-Feb-12 01:28N 53°21' W 006°13'0 0.0
2018-Feb-12 01:00N 53°21' W 006°13'0 0.0
2018-Feb-12 00:30N 53°21' W 006°13'1 2.5
2018-Feb-12 00:00N 53°21' W 006°10'510.0
2018-Feb-11 23:30N 53°21' W 006°02'612.4
2018-Feb-11 23:00N 53°27' W 005°59'2812.7
2018-Feb-11 20:50N 53°54' W 005°60'412.0
2018-Feb-11 20:29N 53°58' W 006°00'611.4
2018-Feb-11 19:59N 54°02' W 006°08'6 1.1
2018-Feb-11 14:51N 54°06' W 006°15'3 9.4
2018-Feb-11 14:30N 54°04' W 006°11'5 9.8
2018-Feb-11 14:00N 54°01' W 006°04'510.4
2018-Feb-11 13:30N 53°56' W 006°00'611.1
2018-Feb-11 13:00N 53°51' W 005°59'611.1
2018-Feb-11 12:30N 53°45' W 005°59'811.5
2018-Feb-11 11:47N 53°37' W 005°59'511.4
2018-Feb-11 11:21N 53°32' W 005°58'411.7
2018-Feb-11 11:00N 53°28' W 005°58'611.3
2018-Feb-11 10:30N 53°22' W 005°59'510.1
2018-Feb-11 10:00N 53°20' W 006°07'3 6.4
2018-Feb-11 09:28N 53°21' W 006°13'0 0.0
2018-Feb-11 08:58N 53°21' W 006°13'0 0.0
2018-Feb-11 08:25N 53°21' W 006°13'0 0.0
2018-Feb-11 07:52N 53°21' W 006°13'0 0.0
2018-Feb-11 06:46N 53°21' W 006°13'0 0.0
2018-Feb-11 06:13N 53°21' W 006°13'0 0.0
2018-Feb-11 05:58N 53°21' W 006°13'0 0.0
2018-Feb-11 05:25N 53°21' W 006°13'0 0.0
2018-Feb-11 04:55N 53°21' W 006°13'0 0.0
2018-Feb-11 04:28N 53°21' W 006°13'0 0.0
2018-Feb-11 03:58N 53°21' W 006°13'0 0.0
2018-Feb-11 03:19N 53°21' W 006°13'0 0.0
2018-Feb-11 02:49N 53°21' W 006°13'0 0.0
2018-Feb-11 02:16N 53°21' W 006°13'0 0.0
2018-Feb-11 01:40N 53°21' W 006°13'0 0.1
2018-Feb-11 01:28N 53°21' W 006°13'0 0.0
2018-Feb-11 00:58N 53°21' W 006°13'0 0.0
2018-Feb-11 00:30N 53°21' W 006°13'1 2.1
2018-Feb-11 00:00N 53°21' W 006°11'5 9.5
2018-Feb-10 23:30N 53°19' W 006°03'510.1
2018-Feb-10 23:00N 53°15' W 006°00'5 9.8
2018-Feb-10 22:30N 53°10' W 005°58'5 9.4
2018-Feb-10 22:00N 53°05' W 005°57'5 9.4
2018-Feb-10 21:30N 53°01' W 005°55'5 9.2
2018-Feb-10 21:00N 52°56' W 005°54'5 9.7
2018-Feb-10 20:30N 52°51' W 005°53'510.9
2018-Feb-10 20:00N 52°46' W 005°52'  
Track history (hours):
 
Tides and Currents Weather Stations Pressure Air Temp Water Temp Dewpoint Dewpoint Depression Visibility Wind Speed Wind Dir Waves Ship Positions

Greta

Last reported at 2018-Feb-20 19:29 UTC. Time now 2018-Feb-20 19:54 UTC.
Position N 51°30' W 002°42'.

Length 100 m; draft 4.9 m.

Type: Cargo ship. MMSI: 377793000.

Date/timePositionNaut miles runAvg speedWind from/ knotsBaromVisibWave heightAir tempDewpointWater temp
2018-Feb-20 19:29N 51°30' W 002°42'0 0.0
2018-Feb-20 18:59N 51°30' W 002°42'0 0.0
2018-Feb-20 18:29N 51°30' W 002°42'0 0.0
2018-Feb-20 17:59N 51°30' W 002°42'0 0.0
2018-Feb-20 17:29N 51°30' W 002°42'0 0.0
2018-Feb-20 16:59N 51°30' W 002°42'0 0.0
2018-Feb-20 16:29N 51°30' W 002°42'0 0.0
2018-Feb-20 15:59N 51°30' W 002°42'0 0.2
2018-Feb-20 15:29N 51°30' W 002°42'0 0.0
2018-Feb-20 14:59N 51°30' W 002°42'0 0.0
2018-Feb-20 14:26N 51°30' W 002°42'0 0.0
2018-Feb-20 13:59N 51°30' W 002°42'0 0.0
2018-Feb-20 13:29N 51°30' W 002°42'0 0.0
2018-Feb-20 12:59N 51°31' W 002°42'0 0.0
2018-Feb-20 12:29N 51°31' W 002°42'0 0.0
2018-Feb-20 11:59N 51°31' W 002°42'0 0.0
2018-Feb-20 11:29N 51°30' W 002°42'0 0.0
2018-Feb-20 10:59N 51°30' W 002°42'0 0.0
2018-Feb-20 10:29N 51°30' W 002°42'0 0.0
2018-Feb-20 09:59N 51°31' W 002°42'0 0.0
2018-Feb-20 09:29N 51°30' W 002°42'0 0.7
2018-Feb-20 09:00N 51°30' W 002°42'0 0.8
2018-Feb-20 08:30N 51°30' W 002°43'4 7.3
2018-Feb-20 08:00N 51°29' W 002°49'714.9
2018-Feb-20 07:30N 51°26' W 002°60'814.4
2018-Feb-20 06:57N 51°22' W 003°10'3 5.8
2018-Feb-20 06:31N 51°22' W 003°14'2110.2
2018-Feb-20 04:28N 51°21' W 003°48'26 9.2
2018-Feb-20 01:35N 51°26' W 004°29'2 8.6
2018-Feb-20 01:25N 51°27' W 004°32'3 8.0
2018-Feb-20 01:01N 51°27' W 004°37'4 7.6
2018-Feb-20 00:29N 51°28' W 004°43'4 7.9
2018-Feb-20 00:00N 51°28' W 004°49'4 8.1
2018-Feb-19 23:30N 51°29' W 004°56'4 8.1
2018-Feb-19 23:00N 51°30' W 005°02'4 7.9
2018-Feb-19 22:31N 51°33' W 005°07'4 7.5
2018-Feb-19 22:00N 51°35' W 005°12'4 7.6
2018-Feb-19 21:30N 51°37' W 005°16'4 7.7
2018-Feb-19 21:01N 51°39' W 005°21'3 6.9
2018-Feb-19 20:30N 51°42' W 005°24'7210.5
2018-Feb-19 13:39N 52°53' W 005°52'211.0
2018-Feb-19 13:30N 52°54' W 005°52'611.0
2018-Feb-19 12:59N 52°60' W 005°55'612.0
2018-Feb-19 12:30N 53°05' W 005°57'611.8
2018-Feb-19 12:00N 53°11' W 005°59'611.4
2018-Feb-19 11:30N 53°17' W 006°02'510.4
2018-Feb-19 11:00N 53°20' W 006°08'3 5.8
2018-Feb-19 10:30N 53°21' W 006°12'0 0.0
2018-Feb-19 09:59N 53°21' W 006°13'0 0.0
2018-Feb-19 09:26N 53°21' W 006°13'0 0.0
2018-Feb-19 08:59N 53°21' W 006°13'0 0.0
2018-Feb-19 08:20N 53°21' W 006°13'0 0.0
2018-Feb-19 07:59N 53°21' W 006°13'0 0.0
2018-Feb-19 07:29N 53°21' W 006°13'0 0.0
2018-Feb-19 06:59N 53°21' W 006°13'0 0.0
2018-Feb-19 06:23N 53°21' W 006°13'0 0.0
2018-Feb-19 05:59N 53°21' W 006°13'0 0.0
2018-Feb-19 05:29N 53°21' W 006°13'0 0.0
2018-Feb-19 04:53N 53°21' W 006°13'0 0.0
2018-Feb-19 04:26N 53°21' W 006°13'0 0.0
2018-Feb-19 03:59N 53°21' W 006°13'0 0.0
2018-Feb-19 03:29N 53°21' W 006°13'0 0.0
2018-Feb-19 02:56N 53°21' W 006°13'0 0.0
2018-Feb-19 02:26N 53°21' W 006°13'0 0.6
2018-Feb-19 01:59N 53°21' W 006°12'3 7.2
2018-Feb-19 01:30N 53°20' W 006°06'4 7.9
2018-Feb-19 00:59N 53°22' W 005°60'510.6
2018-Feb-19 00:30N 53°27' W 005°58'2612.1
2018-Feb-18 22:23N 53°53' W 005°60'512.3
2018-Feb-18 22:00N 53°57' W 006°01'5 9.9
2018-Feb-18 21:30N 54°01' W 006°05'7 1.3
2018-Feb-18 15:51N 54°06' W 006°15'310.0
2018-Feb-18 15:30N 54°04' W 006°11'510.5
2018-Feb-18 15:00N 54°01' W 006°03'510.7
2018-Feb-18 14:30N 53°56' W 005°60'611.6
2018-Feb-18 14:00N 53°50' W 005°59'911.9
2018-Feb-18 13:17N 53°41' W 005°59'412.6
2018-Feb-18 12:59N 53°38' W 005°59'612.8
2018-Feb-18 12:30N 53°32' W 005°58'612.8
2018-Feb-18 12:00N 53°25' W 005°58'611.6
2018-Feb-18 11:30N 53°20' W 006°03'5 9.4
2018-Feb-18 11:00N 53°21' W 006°11'1 1.5
2018-Feb-18 10:27N 53°21' W 006°13'0 0.0
2018-Feb-18 09:57N 53°21' W 006°13'0 0.0
2018-Feb-18 09:27N 53°21' W 006°13'0 0.0
2018-Feb-18 09:00N 53°21' W 006°13'0 0.0
2018-Feb-18 08:27N 53°21' W 006°13'0 0.0
2018-Feb-18 08:00N 53°21' W 006°13'0 0.0
2018-Feb-18 07:30N 53°21' W 006°13'0 0.0
2018-Feb-18 07:00N 53°21' W 006°13'0 0.0
2018-Feb-18 06:30N 53°21' W 006°13'0 0.3
2018-Feb-18 06:00N 53°21' W 006°12'4 7.9
2018-Feb-18 05:30N 53°20' W 006°06'4 7.1
2018-Feb-18 05:00N 53°18' W 006°01'5 9.7
2018-Feb-18 04:30N 53°13' W 005°60'510.2
2018-Feb-18 04:00N 53°08' W 005°57'0 0.5
2018-Feb-18 03:31N 53°08' W 005°57'1 1.8
2018-Feb-18 03:00N 53°09' W 005°58'1 1.5
2018-Feb-18 02:29N 53°10' W 005°59'1 1.3
2018-Feb-18 02:00N 53°11' W 005°59'0 0.4
2018-Feb-18 01:30N 53°11' W 005°59'4 7.6
2018-Feb-18 01:01N 53°07' W 005°58'510.0
2018-Feb-18 00:30N 53°02' W 005°56'611.9
2018-Feb-18 00:00N 52°56' W 005°53'713.3
2018-Feb-17 23:30N 52°50' W 005°51'713.8
2018-Feb-17 22:59N 52°43' W 005°48'1814.6
2018-Feb-17 21:43N 52°25' W 005°41'414.8
2018-Feb-17 21:29N 52°21' W 005°40'4014.7
2018-Feb-17 18:44N 51°42' W 005°24'512.6
2018-Feb-17 18:22N 51°39' W 005°19'412.1
2018-Feb-17 18:00N 51°36' W 005°14'611.7
2018-Feb-17 17:30N 51°33' W 005°06'510.6
2018-Feb-17 17:00N 51°30' W 004°58'510.0
2018-Feb-17 16:30N 51°29' W 004°50'2610.4
2018-Feb-17 13:58N 51°24' W 004°09'811.9
2018-Feb-17 13:18N 51°23' W 003°56'413.0
2018-Feb-17 12:58N 51°22' W 003°50'714.1
2018-Feb-17 12:29N 51°22' W 003°39'1115.5
2018-Feb-17 11:45N 51°21' W 003°21'415.2
2018-Feb-17 11:30N 51°22' W 003°15'612.3
2018-Feb-17 11:00N 51°23' W 003°05'714.9
2018-Feb-17 10:30N 51°28' W 002°56'714.6
2018-Feb-17 10:01N 51°30' W 002°45'1 2.6
2018-Feb-17 09:30N 51°30' W 002°43'0 0.6
2018-Feb-17 08:58N 51°30' W 002°42'0 0.0
2018-Feb-17 08:28N 51°30' W 002°42'0 0.0
2018-Feb-17 07:55N 51°30' W 002°42'0 0.0
2018-Feb-17 07:28N 51°30' W 002°42'0 0.0
2018-Feb-17 06:58N 51°30' W 002°42'0 0.0
2018-Feb-17 06:25N 51°30' W 002°42'0 0.0
2018-Feb-17 05:58N 51°30' W 002°42'0 0.0
2018-Feb-17 05:28N 51°30' W 002°42'0 0.0
2018-Feb-17 04:55N 51°30' W 002°42'0 0.0
2018-Feb-17 04:28N 51°30' W 002°42'0 0.0
2018-Feb-17 03:58N 51°30' W 002°42'0 0.0
2018-Feb-17 03:28N 51°30' W 002°42'0 0.0
2018-Feb-17 02:58N 51°30' W 002°42'0 0.0
2018-Feb-17 02:25N 51°30' W 002°42'0 0.0
2018-Feb-17 01:58N 51°30' W 002°42'0 0.0
2018-Feb-17 01:28N 51°30' W 002°42'0 0.0
2018-Feb-17 00:58N 51°30' W 002°42'0 0.0
2018-Feb-17 00:25N 51°30' W 002°42'0 0.0
2018-Feb-16 23:58N 51°30' W 002°42'0 0.0
2018-Feb-16 23:28N 51°30' W 002°42'0 0.0
2018-Feb-16 22:58N 51°30' W 002°42'0 0.0
2018-Feb-16 22:28N 51°30' W 002°42'0 0.0
2018-Feb-16 21:58N 51°30' W 002°42'0 0.0
2018-Feb-16 21:28N 51°30' W 002°42'0 0.0
2018-Feb-16 20:58N 51°30' W 002°42'0 0.0
2018-Feb-16 20:25N 51°30' W 002°42'0 0.0
2018-Feb-16 19:58N 51°30' W 002°42'0 0.0
2018-Feb-16 19:28N 51°30' W 002°42'0 0.2
2018-Feb-16 19:00N 51°30' W 002°42'0 0.9
2018-Feb-16 18:30N 51°30' W 002°43'1 1.2
2018-Feb-16 18:00N 51°30' W 002°44'713.2
2018-Feb-16 17:30N 51°28' W 002°54'814.7
2018-Feb-16 16:59N 51°24' W 003°04'63 9.1
2018-Feb-16 09:59N 51°28' W 004°46'4 8.7
2018-Feb-16 09:30N 51°29' W 004°52'4 7.2
2018-Feb-16 09:00N 51°30' W 004°58'4 7.5
2018-Feb-16 08:30N 51°31' W 005°03'4 8.7
2018-Feb-16 08:00N 51°34' W 005°09'4 8.6
2018-Feb-16 07:30N 51°36' W 005°14'4 8.9
2018-Feb-16 07:00N 51°39' W 005°20'4 8.0
2018-Feb-16 06:30N 51°42' W 005°24'86 9.1
2018-Feb-15 21:09N 53°08' W 005°34'2 5.9
2018-Feb-15 20:51N 53°09' W 005°35'2 6.5
2018-Feb-15 20:28N 53°12' W 005°36'5 6.5
2018-Feb-15 19:46N 53°16' W 005°38'2 7.1
2018-Feb-15 19:29N 53°18' W 005°40'38 8.7
2018-Feb-15 15:03N 53°55' W 005°57'111.5
2018-Feb-15 15:00N 53°56' W 005°57'611.6
2018-Feb-15 14:29N 54°01' W 006°03'9 1.1
2018-Feb-15 06:43N 54°06' W 006°15'210.2
2018-Feb-15 06:29N 54°04' W 006°12'612.6
2018-Feb-15 06:00N 54°01' W 006°03'4 9.0
2018-Feb-15 05:30N 53°57' W 005°58'5 9.7
2018-Feb-15 05:00N 53°53' W 005°56'7 9.7
2018-Feb-15 04:19N 53°46' W 005°53'19 9.4
2018-Feb-15 02:17N 53°28' W 005°45'3 9.4
2018-Feb-15 02:00N 53°25' W 005°43'5 9.7
2018-Feb-15 01:30N 53°21' W 005°41'710.5
2018-Feb-15 00:53N 53°14' W 005°39'411.2
2018-Feb-15 00:30N 53°10' W 005°37'611.5
2018-Feb-15 00:00N 53°05' W 005°35'611.1
2018-Feb-14 23:30N 52°59' W 005°33'611.9
2018-Feb-14 23:00N 52°53' W 005°32'7313.8
2018-Feb-14 17:43N 51°40' W 005°23'411.9
2018-Feb-14 17:23N 51°38' W 005°18'411.9
2018-Feb-14 17:00N 51°36' W 005°12'611.6
2018-Feb-14 16:30N 51°32' W 005°05'5 9.9
2018-Feb-14 16:00N 51°30' W 004°58'5 9.4
2018-Feb-14 15:30N 51°29' W 004°50'38 8.6
2018-Feb-14 11:01N 51°22' W 003°50'110.5
2018-Feb-14 10:55N 51°22' W 003°48'611.4
2018-Feb-14 10:26N 51°21' W 003°39'712.3
2018-Feb-14 09:53N 51°21' W 003°28'513.9
2018-Feb-14 09:30N 51°21' W 003°20'712.7
2018-Feb-14 08:56N 51°22' W 003°08'614.9
2018-Feb-14 08:30N 51°26' W 003°01'714.5
2018-Feb-14 08:00N 51°29' W 002°50'5 9.6
2018-Feb-14 07:29N 51°30' W 002°43'0 0.6
2018-Feb-14 06:59N 51°30' W 002°42'0 0.0
2018-Feb-14 06:29N 51°30' W 002°42'0 0.0
2018-Feb-14 05:59N 51°30' W 002°42'0 0.0
2018-Feb-14 05:29N 51°30' W 002°42'0 0.0
2018-Feb-14 04:59N 51°30' W 002°42'0 0.0
2018-Feb-14 04:29N 51°30' W 002°42'0 0.0
2018-Feb-14 03:59N 51°30' W 002°42'0 0.0
2018-Feb-14 03:29N 51°30' W 002°42'0 0.0
2018-Feb-14 02:59N 51°30' W 002°42'0 0.0
2018-Feb-14 02:29N 51°30' W 002°42'0 0.0
2018-Feb-14 01:59N 51°30' W 002°42'0 0.0
2018-Feb-14 01:29N 51°30' W 002°42'0 0.0
2018-Feb-14 00:59N 51°30' W 002°42'0 0.0
2018-Feb-14 00:29N 51°30' W 002°42'0 0.0
2018-Feb-13 23:59N 51°30' W 002°42'0 0.0
2018-Feb-13 23:29N 51°30' W 002°42'0 0.0
2018-Feb-13 22:59N 51°30' W 002°42'0 0.0
2018-Feb-13 22:29N 51°30' W 002°42'0 0.0
2018-Feb-13 21:59N 51°30' W 002°42'0 0.0
2018-Feb-13 21:29N 51°30' W 002°42'0 0.0
2018-Feb-13 20:59N 51°30' W 002°42'0 0.0
2018-Feb-13 20:29N 51°30' W 002°42'0 0.0
2018-Feb-13 19:59N 51°30' W 002°42'0 0.0
2018-Feb-13 19:29N 51°30' W 002°42'0 0.0
2018-Feb-13 18:56N 51°30' W 002°42'0 0.0
2018-Feb-13 18:29N 51°30' W 002°42'0 0.0
2018-Feb-13 17:59N 51°30' W 002°42'0 0.0
2018-Feb-13 17:30N 51°30' W 002°42'0 0.0
2018-Feb-13 17:00N 51°30' W 002°42'0 0.0
2018-Feb-13 16:30N 51°30' W 002°42'0 0.0
2018-Feb-13 15:59N 51°30' W 002°42'0 0.8
2018-Feb-13 15:30N 51°30' W 002°43'2 3.5
2018-Feb-13 15:00N 51°30' W 002°45'714.7
2018-Feb-13 14:30N 51°27' W 002°57'1313.8
2018-Feb-13 13:35N 51°21' W 003°14'6 6.9
2018-Feb-13 12:45N 51°19' W 003°23'2 6.9
2018-Feb-13 12:30N 51°17' W 003°22'4 7.6
2018-Feb-13 12:00N 51°13' W 003°23'3 0.4
2018-Feb-13 05:06N 51°16' W 003°23'110.4
2018-Feb-13 05:00N 51°15' W 003°23'4910.3
2018-Feb-13 00:16N 51°28' W 004°38'310.8
2018-Feb-12 23:59N 51°28' W 004°43'510.6
2018-Feb-12 23:30N 51°29' W 004°51'510.6
2018-Feb-12 23:00N 51°30' W 004°60'5 9.7
2018-Feb-12 22:30N 51°33' W 005°06'5 9.7
2018-Feb-12 22:00N 51°36' W 005°13'5 9.4
2018-Feb-12 21:31N 51°38' W 005°19'4 8.7
2018-Feb-12 21:00N 51°41' W 005°24'68 9.2
2018-Feb-12 13:38N 52°48' W 005°50'212.5
2018-Feb-12 13:29N 52°49' W 005°50'613.3
2018-Feb-12 13:01N 52°56' W 005°53'713.8
2018-Feb-12 12:30N 53°02' W 005°56'713.8
2018-Feb-12 12:01N 53°09' W 005°58'713.4
2018-Feb-12 11:30N 53°15' W 006°01'612.3
2018-Feb-12 11:00N 53°20' W 006°07'3 6.3
2018-Feb-12 10:28N 53°21' W 006°13'0 0.0
2018-Feb-12 09:55N 53°21' W 006°13'0 0.0
2018-Feb-12 09:19N 53°21' W 006°13'0 0.0
2018-Feb-12 08:43N 53°21' W 006°13'0 0.0
2018-Feb-12 08:04N 53°21' W 006°13'0 0.1
2018-Feb-12 07:58N 53°21' W 006°13'0 0.0
2018-Feb-12 07:28N 53°21' W 006°12'0 0.0
2018-Feb-12 06:58N 53°21' W 006°13'0 0.0
2018-Feb-12 06:22N 53°21' W 006°13'0 0.0
2018-Feb-12 05:49N 53°21' W 006°13'0 0.0
2018-Feb-12 05:10N 53°21' W 006°13'0 0.0
2018-Feb-12 04:58N 53°21' W 006°13'0 0.0
2018-Feb-12 04:28N 53°21' W 006°12'0 0.0
2018-Feb-12 03:58N 53°21' W 006°13'0 0.0
2018-Feb-12 03:25N 53°21' W 006°13'0 0.0
2018-Feb-12 02:46N 53°21' W 006°13'0 0.0
2018-Feb-12 02:13N 53°21' W 006°13'0 0.0
2018-Feb-12 01:58N 53°21' W 006°13'0 0.0
2018-Feb-12 01:28N 53°21' W 006°13'0 0.0
2018-Feb-12 01:00N 53°21' W 006°13'0 0.0
2018-Feb-12 00:30N 53°21' W 006°13'1 2.5
2018-Feb-12 00:00N 53°21' W 006°10'510.0
2018-Feb-11 23:30N 53°21' W 006°02'612.4
2018-Feb-11 23:00N 53°27' W 005°59'2812.7
2018-Feb-11 20:50N 53°54' W 005°60'412.0
2018-Feb-11 20:29N 53°58' W 006°00'611.4
2018-Feb-11 19:59N 54°02' W 006°08'6 1.1
2018-Feb-11 14:51N 54°06' W 006°15'3 9.4
2018-Feb-11 14:30N 54°04' W 006°11'5 9.8
2018-Feb-11 14:00N 54°01' W 006°04'510.4
2018-Feb-11 13:30N 53°56' W 006°00'611.1
2018-Feb-11 13:00N 53°51' W 005°59'611.1
2018-Feb-11 12:30N 53°45' W 005°59'811.5
2018-Feb-11 11:47N 53°37' W 005°59'511.4
2018-Feb-11 11:21N 53°32' W 005°58'411.7
2018-Feb-11 11:00N 53°28' W 005°58'611.3
2018-Feb-11 10:30N 53°22' W 005°59'510.1
2018-Feb-11 10:00N 53°20' W 006°07'3 6.4
2018-Feb-11 09:28N 53°21' W 006°13'0 0.0
2018-Feb-11 08:58N 53°21' W 006°13'0 0.0
2018-Feb-11 08:25N 53°21' W 006°13'0 0.0
2018-Feb-11 07:52N 53°21' W 006°13'0 0.0
2018-Feb-11 06:46N 53°21' W 006°13'0 0.0
2018-Feb-11 06:13N 53°21' W 006°13'0 0.0
2018-Feb-11 05:58N 53°21' W 006°13'0 0.0
2018-Feb-11 05:25N 53°21' W 006°13'0 0.0
2018-Feb-11 04:55N 53°21' W 006°13'0 0.0
2018-Feb-11 04:28N 53°21' W 006°13'0 0.0
2018-Feb-11 03:58N 53°21' W 006°13'0 0.0
2018-Feb-11 03:19N 53°21' W 006°13'0 0.0
2018-Feb-11 02:49N 53°21' W 006°13'0 0.0
2018-Feb-11 02:16N 53°21' W 006°13'0 0.0
2018-Feb-11 01:40N 53°21' W 006°13'0 0.1
2018-Feb-11 01:28N 53°21' W 006°13'0 0.0
2018-Feb-11 00:58N 53°21' W 006°13'0 0.0
2018-Feb-11 00:30N 53°21' W 006°13'1 2.1
2018-Feb-11 00:00N 53°21' W 006°11'5 9.5
2018-Feb-10 23:30N 53°19' W 006°03'510.1
2018-Feb-10 23:00N 53°15' W 006°00'5 9.8
2018-Feb-10 22:30N 53°10' W 005°58'5 9.4
2018-Feb-10 22:00N 53°05' W 005°57'5 9.4
2018-Feb-10 21:30N 53°01' W 005°55'5 9.2
2018-Feb-10 21:00N 52°56' W 005°54'5 9.7
2018-Feb-10 20:30N 52°51' W 005°53'510.9
2018-Feb-10 20:00N 52°46' W 005°52'  

Dump ship's entire track history